Dexter, Oregon
Current Conditions -  °F | °C
As of 6:54 PM on Thursday 18 Dec 2014 (Local Time) from KEUG Reporting Station
Overcast Overcast  
Wind Chill: 52°   Ceiling: 5000
Heat Index: 52°   Visibility: 10mi
Dew Point: 45°   Wind: 7mph
Humidity: 77%   Direction: 160°SSE
Pressure: 29.81"   Gusts: NA
Location:  43.92°N, 122.83°W
Report Text: KEUG 190254Z 16006KT 10SM OVC050 11/07 A2981 RMK AO2 SLP095 60000 T01110072 56014
Loading
Personal Weather Stations






























Interactive Weather Map New forecast layout! Learn more

10-Day Weather Forecast

Advertisements
Track Severe Weather on mobile